createdAt,value
2023-07-27T00:00:37.088Z,99864.59
2023-07-27T00:03:05.625Z,99867.06
2023-07-27T00:05:34.651Z,99858.00
2023-07-27T00:08:02.988Z,99862.97
2023-07-27T00:10:31.444Z,99866.28
2023-07-27T00:12:59.706Z,99865.50
2023-07-27T00:15:28.032Z,99857.69
2023-07-27T00:17:56.551Z,99854.00
2023-07-27T00:20:24.882Z,99864.53
2023-07-27T00:22:53.204Z,99867.03
2023-07-27T00:25:21.571Z,99858.19
2023-07-27T00:27:49.823Z,99856.34
2023-07-27T00:30:18.276Z,99848.34
2023-07-27T00:32:46.748Z,99862.34
2023-07-27T00:35:15.129Z,99857.66
2023-07-27T00:37:44.016Z,99857.44
2023-07-27T00:40:12.457Z,99850.22
2023-07-27T00:42:40.742Z,99864.25
2023-07-27T00:45:09.498Z,99859.72
2023-07-27T00:47:37.960Z,99854.38
2023-07-27T00:50:06.624Z,99845.50
2023-07-27T00:52:34.967Z,99852.13
2023-07-27T00:55:03.536Z,99861.56
2023-07-27T00:57:31.877Z,99852.09
2023-07-27T01:00:00.212Z,99851.66
2023-07-27T01:02:28.547Z,99843.03
2023-07-27T01:04:56.758Z,99844.69
2023-07-27T01:07:24.999Z,99846.31
2023-07-27T01:09:53.283Z,99838.69
2023-07-27T01:12:36.856Z,99843.44
2023-07-27T01:15:12.700Z,99837.44
2023-07-27T01:17:40.921Z,99829.03
2023-07-27T01:20:47.773Z,99840.53
2023-07-27T01:24:00.100Z,99836.84
2023-07-27T01:26:48.414Z,99823.03
2023-07-27T01:29:55.631Z,99834.81
2023-07-27T01:32:24.789Z,99826.34
2023-07-27T01:34:58.710Z,99826.53
2023-07-27T01:37:31.131Z,99826.53
2023-07-27T01:40:03.175Z,99828.63
2023-07-27T01:42:32.160Z,99829.63
2023-07-27T01:45:00.833Z,99826.13
2023-07-27T01:47:30.454Z,99824.47
2023-07-27T01:49:59.576Z,99824.47
2023-07-27T01:52:28.646Z,99817.69
2023-07-27T01:54:59.332Z,99817.06
2023-07-27T01:57:27.741Z,99816.44
2023-07-27T01:59:56.265Z,99809.44
2023-07-27T02:02:24.635Z,99813.38
2023-07-27T02:04:53.974Z,99809.88
2023-07-27T02:07:22.294Z,99808.81
2023-07-27T02:09:50.618Z,99813.97
2023-07-27T02:12:27.632Z,99806.78
2023-07-27T02:15:07.424Z,99800.19
2023-07-27T02:17:43.580Z,99802.66
2023-07-27T02:20:17.979Z,99797.31
2023-07-27T02:22:48.544Z,99784.94
2023-07-27T02:25:16.946Z,99794.41
2023-07-27T02:27:46.306Z,99787.00
2023-07-27T02:30:14.722Z,99798.50
2023-07-27T02:32:43.045Z,99799.16
2023-07-27T02:35:14.184Z,99789.25
2023-07-27T02:37:42.433Z,99791.53
2023-07-27T02:40:11.383Z,99781.22
2023-07-27T02:42:39.629Z,99787.78
2023-07-27T02:45:07.920Z,99777.72
2023-07-27T02:47:36.480Z,99785.53
2023-07-27T02:50:04.938Z,99775.47
2023-07-27T02:52:33.381Z,99780.19
2023-07-27T02:55:01.757Z,99776.47
2023-07-27T02:57:30.106Z,99772.78
2023-07-27T02:59:58.371Z,99779.78
2023-07-27T03:02:26.679Z,99780.19
2023-07-27T03:04:54.721Z,99781.66
2023-07-27T03:07:22.955Z,99783.69
2023-07-27T03:09:54.053Z,99783.09
2023-07-27T03:12:22.276Z,99780.41
2023-07-27T03:14:50.586Z,99782.44
2023-07-27T03:17:18.980Z,99778.16
2023-07-27T03:19:47.228Z,99781.84
2023-07-27T03:22:19.210Z,99782.66
2023-07-27T03:24:49.922Z,99794.81
2023-07-27T03:27:18.561Z,99793.78
2023-07-27T03:29:46.806Z,99795.03
2023-07-27T03:32:15.170Z,99792.97
2023-07-27T03:34:43.444Z,99784.09
2023-07-27T03:37:11.854Z,99782.25
2023-07-27T03:39:40.135Z,99784.72
2023-07-27T03:42:08.716Z,99782.88
2023-07-27T03:44:37.002Z,99780.19
2023-07-27T03:47:05.165Z,99784.13
2023-07-27T03:49:33.445Z,99771.75
2023-07-27T03:52:01.687Z,99771.75
2023-07-27T03:54:30.006Z,99765.78
2023-07-27T03:56:58.268Z,99771.75
2023-07-27T03:59:26.578Z,99762.06
2023-07-27T04:01:55.274Z,99757.31
2023-07-27T04:04:24.515Z,99765.34
2023-07-27T04:06:53.153Z,99760.59
2023-07-27T04:09:21.484Z,99757.06
2023-07-27T04:11:49.404Z,99759.91
2023-07-27T04:14:20.264Z,99767.69
2023-07-27T04:16:48.557Z,99754.22
2023-07-27T04:19:17.413Z,99758.69
2023-07-27T04:21:45.668Z,99758.22
2023-07-27T04:24:13.980Z,99748.28
2023-07-27T04:26:41.949Z,99755.72
2023-07-27T04:29:10.242Z,99751.13
2023-07-27T04:31:38.511Z,99759.13
2023-07-27T04:34:07.075Z,99750.22
2023-07-27T04:36:38.039Z,99745.66
2023-07-27T04:39:06.335Z,99750.75
2023-07-27T04:41:34.706Z,99741.81
2023-07-27T04:44:03.038Z,99750.25
2023-07-27T04:46:31.566Z,99742.59
2023-07-27T04:49:00.138Z,99746.69
2023-07-27T04:51:28.388Z,99757.00
2023-07-27T04:53:56.652Z,99754.94
2023-07-27T04:56:24.916Z,99748.16
2023-07-27T04:58:53.219Z,99746.50
2023-07-27T05:01:22.384Z,99744.84
2023-07-27T05:03:50.581Z,99741.94
2023-07-27T05:06:18.851Z,99728.91
2023-07-27T05:08:47.181Z,99728.63
2023-07-27T05:11:15.448Z,99721.91
2023-07-27T05:13:43.799Z,99730.16
2023-07-27T05:16:12.086Z,99718.06
2023-07-27T05:18:40.359Z,99721.72
2023-07-27T05:21:08.632Z,99718.13
2023-07-27T05:23:36.929Z,99719.50
2023-07-27T05:26:06.487Z,99720.25
2023-07-27T05:28:34.761Z,99718.91
2023-07-27T05:31:03.037Z,99719.47
2023-07-27T05:33:31.325Z,99716.09
2023-07-27T05:36:01.253Z,99720.78
2023-07-27T05:38:29.546Z,99714.59
2023-07-27T05:41:02.290Z,99712.97
2023-07-27T05:43:30.672Z,99705.09
2023-07-27T05:45:59.313Z,99715.03
2023-07-27T05:48:28.097Z,99715.88
2023-07-27T05:50:56.322Z,99716.47
2023-07-27T05:53:24.613Z,99723.03
2023-07-27T05:55:52.855Z,99709.38
2023-07-27T05:58:25.566Z,99712.88
2023-07-27T06:01:00.799Z,99704.56
2023-07-27T06:03:30.471Z,99700.97
2023-07-27T06:05:59.036Z,99701.03
2023-07-27T06:08:27.786Z,99706.16
2023-07-27T06:11:10.492Z,99696.97
2023-07-27T06:13:39.107Z,99700.84
2023-07-27T06:16:07.964Z,99703.81
2023-07-27T06:18:36.472Z,99699.38
2023-07-27T06:21:04.718Z,99698.34
2023-07-27T06:23:32.990Z,99703.63
2023-07-27T06:26:02.191Z,99703.16
2023-07-27T06:28:30.523Z,99702.31
2023-07-27T06:30:58.832Z,99693.19
2023-07-27T06:33:27.151Z,99700.22
2023-07-27T06:35:55.502Z,99691.34
2023-07-27T06:38:23.782Z,99687.34
2023-07-27T06:40:52.775Z,99683.72
2023-07-27T06:43:21.056Z,99681.00
2023-07-27T06:45:49.372Z,99678.91
2023-07-27T06:48:18.635Z,99678.31
2023-07-27T06:50:46.921Z,99671.28
2023-07-27T06:53:15.259Z,99676.66
2023-07-27T06:55:43.536Z,99676.97
2023-07-27T06:58:11.839Z,99684.47
2023-07-27T07:00:40.177Z,99674.50
2023-07-27T07:03:08.582Z,99677.63
2023-07-27T07:05:37.154Z,99671.25
2023-07-27T07:08:05.630Z,99671.31
2023-07-27T07:10:42.715Z,99671.09
2023-07-27T07:13:10.977Z,99665.50
2023-07-27T07:15:39.318Z,99662.06
2023-07-27T07:18:07.623Z,99657.25
2023-07-27T07:20:35.965Z,99650.91
2023-07-27T07:23:04.221Z,99647.00
2023-07-27T07:25:32.514Z,99642.41
2023-07-27T07:28:00.912Z,99651.78
2023-07-27T07:30:29.183Z,99650.63
2023-07-27T07:32:57.480Z,99645.06
2023-07-27T07:35:25.789Z,99648.13
2023-07-27T07:37:54.469Z,99636.41
2023-07-27T07:40:25.585Z,99645.50
2023-07-27T07:42:54.345Z,99636.78
2023-07-27T07:45:22.602Z,99635.13
2023-07-27T07:47:51.068Z,99634.31
2023-07-27T07:50:19.377Z,99631.59
2023-07-27T07:52:50.620Z,99633.00
2023-07-27T07:55:20.742Z,99625.19
2023-07-27T07:57:49.041Z,99625.00
2023-07-27T08:00:17.697Z,99617.88
2023-07-27T08:02:46.176Z,99614.78
2023-07-27T08:05:14.466Z,99614.09
2023-07-27T08:07:42.787Z,99611.72
2023-07-27T08:10:11.694Z,99603.38
2023-07-27T08:12:40.148Z,99611.31
2023-07-27T08:15:09.147Z,99613.78
2023-07-27T08:17:38.005Z,99604.88
2023-07-27T08:20:07.044Z,99604.66
2023-07-27T08:22:35.290Z,99603.94
2023-07-27T08:25:18.733Z,99595.91
2023-07-27T08:27:51.624Z,99581.91
2023-07-27T08:30:20.286Z,99592.56
2023-07-27T08:32:49.184Z,99583.66
2023-07-27T08:35:17.634Z,99587.50
2023-07-27T08:37:45.894Z,99582.38
2023-07-27T08:40:14.580Z,99587.78
2023-07-27T08:42:45.437Z,99577.53
2023-07-27T08:45:16.430Z,99576.50
2023-07-27T08:47:45.163Z,99574.94
2023-07-27T08:50:13.983Z,99576.78
2023-07-27T08:52:42.384Z,99572.66
2023-07-27T08:55:12.044Z,99583.72
2023-07-27T08:57:40.371Z,99570.41
2023-07-27T09:00:10.897Z,99575.53
2023-07-27T09:02:40.181Z,99584.97
2023-07-27T09:05:10.290Z,99587.06
2023-07-27T09:07:38.657Z,99581.91
2023-07-27T09:10:10.215Z,99577.31
2023-07-27T09:12:38.685Z,99575.19
2023-07-27T09:15:24.554Z,99585.50
2023-07-27T09:17:53.548Z,99575.72
2023-07-27T09:20:21.925Z,99576.47
2023-07-27T09:22:51.489Z,99578.94
2023-07-27T09:25:23.404Z,99574.06
2023-07-27T09:27:55.906Z,99581.28
2023-07-27T09:30:26.153Z,99576.66
2023-07-27T09:32:55.285Z,99565.84
2023-07-27T09:35:24.008Z,99560.38
2023-07-27T09:37:53.597Z,99553.09
2023-07-27T09:40:26.722Z,99559.84
2023-07-27T09:42:55.277Z,99561.94
2023-07-27T09:45:23.612Z,99562.16
2023-07-27T09:47:53.475Z,99576.22
2023-07-27T09:50:23.522Z,99569.66
2023-07-27T09:52:51.793Z,99568.81
2023-07-27T09:55:20.248Z,99569.00
2023-07-27T09:57:48.860Z,99561.91
2023-07-27T10:00:17.157Z,99562.66
2023-07-27T10:02:45.487Z,99555.38
2023-07-27T10:05:14.163Z,99556.22
2023-07-27T10:07:53.695Z,99555.28
2023-07-27T10:10:35.527Z,99546.75
2023-07-27T10:13:27.756Z,99551.13
2023-07-27T10:15:59.694Z,99551.97
2023-07-27T10:18:32.984Z,99561.94
2023-07-27T10:21:22.762Z,99551.34
2023-07-27T10:24:05.369Z,99549.75
2023-07-27T10:26:55.593Z,99547.06
2023-07-27T10:29:27.503Z,99544.66
2023-07-27T10:32:07.016Z,99545.22
2023-07-27T10:34:41.125Z,99542.47
2023-07-27T10:37:15.216Z,99535.09
2023-07-27T10:39:55.721Z,99537.69
2023-07-27T10:42:28.823Z,99537.38
2023-07-27T10:44:59.849Z,99536.06
2023-07-27T10:47:38.540Z,99525.22
2023-07-27T10:50:08.324Z,99522.81
2023-07-27T10:52:40.121Z,99525.00
2023-07-27T10:55:09.263Z,99527.09
2023-07-27T10:57:38.813Z,99524.72
2023-07-27T11:00:08.258Z,99518.84
2023-07-27T11:02:37.716Z,99525.09
2023-07-27T11:05:08.830Z,99516.97
2023-07-27T11:07:45.722Z,99520.31
2023-07-27T11:10:17.879Z,99513.59
2023-07-27T11:12:55.906Z,99502.78
2023-07-27T11:15:27.970Z,99497.34
2023-07-27T11:17:58.598Z,99498.91
2023-07-27T11:20:29.955Z,99494.56
2023-07-27T11:23:00.113Z,99492.69
2023-07-27T11:25:32.144Z,99491.09
2023-07-27T11:28:01.600Z,99487.56
2023-07-27T11:30:31.933Z,99483.84
2023-07-27T11:33:01.899Z,99481.31
2023-07-27T11:35:30.379Z,99475.00
2023-07-27T11:37:58.921Z,99468.44
2023-07-27T11:40:28.071Z,99466.94
2023-07-27T11:42:56.895Z,99462.38
2023-07-27T11:45:27.469Z,99462.03
2023-07-27T11:47:55.903Z,99451.75
2023-07-27T11:50:25.001Z,99450.34
2023-07-27T11:52:58.869Z,99445.69
2023-07-27T11:55:27.529Z,99443.38
2023-07-27T11:57:55.849Z,99433.88
2023-07-27T12:00:24.247Z,99434.13
2023-07-27T12:02:53.837Z,99431.09
2023-07-27T12:05:25.137Z,99431.81
2023-07-27T12:15:41.763Z,99405.47
2023-07-27T12:18:12.175Z,99399.25
2023-07-27T12:25:42.829Z,99387.66
2023-07-27T12:30:43.863Z,99392.00
2023-07-27T12:33:12.909Z,99391.75
2023-07-27T12:35:41.749Z,99395.13
2023-07-27T12:43:13.007Z,99396.03
2023-07-27T12:45:41.599Z,99393.09
2023-07-27T12:48:10.028Z,99394.00
2023-07-27T12:50:38.424Z,99387.78
2023-07-27T12:53:06.758Z,99394.34
2023-07-27T12:55:35.068Z,99382.59
2023-07-27T12:58:03.426Z,99389.13
2023-07-27T13:00:31.709Z,99398.03
2023-07-27T13:03:00.108Z,99390.44
2023-07-27T13:05:28.529Z,99389.78
2023-07-27T13:07:56.886Z,99385.34
2023-07-27T13:10:25.205Z,99377.91
2023-07-27T13:12:53.473Z,99376.53
2023-07-27T13:15:21.737Z,99373.16
2023-07-27T13:17:50.092Z,99356.78
2023-07-27T13:20:18.396Z,99346.13
2023-07-27T13:22:46.650Z,99345.88
2023-07-27T13:25:14.920Z,99337.56
2023-07-27T13:27:43.198Z,99315.81
2023-07-27T13:30:11.904Z,99312.88
2023-07-27T13:32:40.306Z,99303.03
2023-07-27T13:35:11.125Z,99302.53
2023-07-27T13:37:40.447Z,99288.91
2023-07-27T13:40:09.313Z,99292.75
2023-07-27T13:42:37.573Z,99289.69
2023-07-27T13:45:06.736Z,99285.84
2023-07-27T13:47:35.076Z,99285.25
2023-07-27T13:50:03.536Z,99284.94
2023-07-27T13:52:31.852Z,99294.44
2023-07-27T13:55:00.150Z,99290.78
2023-07-27T13:57:28.432Z,99281.91
2023-07-27T13:59:56.728Z,99287.19
2023-07-27T14:02:25.072Z,99281.47
2023-07-27T14:04:53.406Z,99283.25
2023-07-27T14:07:21.666Z,99282.31
2023-07-27T14:09:50.250Z,99279.78
2023-07-27T14:12:18.638Z,99275.69
2023-07-27T14:14:46.865Z,99271.53
2023-07-27T14:17:15.115Z,99273.13
2023-07-27T14:19:46.045Z,99276.66
2023-07-27T14:22:14.299Z,99266.72
2023-07-27T14:24:42.604Z,99261.34
2023-07-27T14:27:10.913Z,99261.91
2023-07-27T14:29:39.167Z,99255.69
2023-07-27T14:32:07.879Z,99265.19
2023-07-27T14:34:36.161Z,99247.97
2023-07-27T14:37:04.468Z,99246.44
2023-07-27T14:42:04.369Z,99251.09
2023-07-27T14:44:32.614Z,99247.59
2023-07-27T14:47:01.240Z,99248.97
2023-07-27T14:49:39.496Z,99242.78
2023-07-27T14:52:09.599Z,99239.59
2023-07-27T14:54:37.919Z,99230.72
2023-07-27T14:57:13.741Z,99219.72
2023-07-27T14:59:56.037Z,99220.53
2023-07-27T15:02:28.983Z,99216.78
2023-07-27T15:04:57.605Z,99216.31
2023-07-27T15:07:25.999Z,99202.84
2023-07-27T15:09:55.351Z,99204.47
2023-07-27T15:12:23.661Z,99204.47
2023-07-27T15:14:51.892Z,99193.47
2023-07-27T15:17:20.252Z,99192.16
2023-07-27T15:19:48.728Z,99186.28
2023-07-27T15:22:17.037Z,99184.16
2023-07-27T15:24:45.288Z,99186.84
2023-07-27T15:27:13.532Z,99196.34
2023-07-27T15:29:57.509Z,99187.19
2023-07-27T15:32:25.894Z,99189.63
2023-07-27T15:34:54.316Z,99185.91
2023-07-27T15:37:22.632Z,99196.66
2023-07-27T15:39:51.091Z,99183.75
2023-07-27T15:42:19.989Z,99192.66
2023-07-27T15:44:48.369Z,99180.03
2023-07-27T15:47:16.763Z,99182.72
2023-07-27T15:49:46.875Z,99186.22
2023-07-27T15:52:15.143Z,99180.84
2023-07-27T15:54:43.465Z,99178.38
2023-07-27T15:57:15.683Z,99173.72
2023-07-27T15:59:44.150Z,99172.66
2023-07-27T16:02:12.817Z,99169.16
2023-07-27T16:04:41.100Z,99165.41
2023-07-27T16:07:11.558Z,99178.59
2023-07-27T16:09:39.811Z,99165.91
2023-07-27T16:12:08.521Z,99168.00
2023-07-27T16:14:36.886Z,99167.22
2023-07-27T16:17:05.223Z,99162.06
2023-07-27T16:19:33.602Z,99162.06
2023-07-27T16:22:01.903Z,99161.00
2023-07-27T16:24:30.426Z,99148.59
2023-07-27T16:26:58.669Z,99155.84
2023-07-27T16:29:26.663Z,99160.41
2023-07-27T16:31:55.199Z,99155.03
2023-07-27T16:34:23.457Z,99157.72
2023-07-27T16:36:52.022Z,99155.53
2023-07-27T16:39:20.332Z,99160.91
2023-07-27T16:41:48.638Z,99155.53
2023-07-27T16:44:17.735Z,99154.47
2023-07-27T16:46:46.099Z,99158.22
2023-07-27T16:49:15.699Z,99156.59
2023-07-27T16:51:45.108Z,99162.81
2023-07-27T16:54:13.711Z,99163.03
2023-07-27T16:56:41.958Z,99158.13
2023-07-27T16:59:10.285Z,99162.38
2023-07-27T17:01:39.564Z,99162.84
2023-07-27T17:04:07.992Z,99165.81
2023-07-27T17:06:38.076Z,99163.13
2023-07-27T17:09:06.589Z,99158.78
2023-07-27T17:11:34.978Z,99158.78
2023-07-27T17:14:03.228Z,99165.22
2023-07-27T17:16:31.574Z,99156.31
2023-07-27T17:19:00.102Z,99163.56
2023-07-27T17:21:28.525Z,99156.31
2023-07-27T17:23:57.043Z,99156.31
2023-07-27T17:26:25.556Z,99153.63
2023-07-27T17:28:55.484Z,99147.44
2023-07-27T17:31:24.002Z,99145.00
2023-07-27T17:33:52.032Z,99140.44
2023-07-27T17:36:20.289Z,99138.56
2023-07-27T17:38:48.557Z,99151.75
2023-07-27T17:41:16.829Z,99146.16
2023-07-27T17:43:45.388Z,99147.53
2023-07-27T17:46:13.689Z,99144.28
2023-07-27T17:48:41.994Z,99147.28
2023-07-27T17:51:10.675Z,99135.47
2023-07-27T17:53:38.979Z,99141.66
2023-07-27T17:56:08.324Z,99143.31
2023-07-27T17:58:36.693Z,99138.75
2023-07-27T18:01:05.158Z,99137.44
2023-07-27T18:03:33.532Z,99153.56
2023-07-27T18:06:07.991Z,99150.63
2023-07-27T18:08:36.318Z,99149.00
2023-07-27T18:11:11.700Z,99147.94
2023-07-27T18:13:41.652Z,99139.84
2023-07-27T18:16:17.528Z,99138.25
2023-07-27T18:18:45.937Z,99139.03
2023-07-27T18:21:17.239Z,99132.38
2023-07-27T18:23:48.702Z,99131.56
2023-07-27T18:26:18.422Z,99129.69
2023-07-27T18:28:46.978Z,99131.88
2023-07-27T18:31:15.271Z,99128.38
2023-07-27T18:33:43.601Z,99125.69
2023-07-27T18:36:17.186Z,99131.63
2023-07-27T18:38:47.107Z,99130.81
2023-07-27T18:41:17.618Z,99128.13
2023-07-27T18:43:46.427Z,99130.00
2023-07-27T18:46:21.046Z,99121.13
2023-07-27T18:48:50.151Z,99126.50
2023-07-27T18:51:18.717Z,99135.06
2023-07-27T18:53:47.124Z,99118.91
2023-07-27T18:56:15.418Z,99127.97
2023-07-27T18:58:43.771Z,99129.09
2023-07-27T19:01:12.291Z,99127.16
2023-07-27T19:03:41.440Z,99118.25
2023-07-27T19:06:10.797Z,99117.75
2023-07-27T19:08:39.220Z,99123.38
2023-07-27T19:11:08.304Z,99127.72
2023-07-27T19:13:36.905Z,99114.25
2023-07-27T19:16:05.898Z,99126.88
2023-07-27T19:18:35.417Z,99124.19
2023-07-27T19:21:06.261Z,99123.38
2023-07-27T19:23:36.246Z,99120.69
2023-07-27T19:26:04.656Z,99124.19
2023-07-27T19:28:33.005Z,99119.06
2023-07-27T19:31:02.166Z,99111.81
2023-07-27T19:33:30.491Z,99132.28
2023-07-27T19:35:59.432Z,99127.72
2023-07-27T19:38:27.762Z,99125.84
2023-07-27T19:40:56.006Z,99131.22
2023-07-27T19:43:25.130Z,99132.88
2023-07-27T19:45:53.525Z,99137.44
2023-07-27T19:48:21.838Z,99132.88
2023-07-27T19:50:53.516Z,99133.91
2023-07-27T19:53:21.874Z,99126.88
2023-07-27T19:55:50.246Z,99134.72
2023-07-27T19:58:18.559Z,99131.78
2023-07-27T20:00:46.857Z,99132.03
2023-07-27T20:03:15.330Z,99130.19
2023-07-27T20:05:43.594Z,99136.34
2023-07-27T20:08:11.809Z,99118.31
2023-07-27T20:10:40.072Z,99129.09
2023-07-27T20:13:08.350Z,99132.59
2023-07-27T20:15:36.767Z,99130.72
2023-07-27T20:18:05.410Z,99125.91
2023-07-27T20:20:33.754Z,99136.94
2023-07-27T20:23:02.612Z,99135.06
2023-07-27T20:25:30.896Z,99130.72
2023-07-27T20:27:59.178Z,99132.03
2023-07-27T20:30:27.490Z,99130.41
2023-07-27T20:32:55.821Z,99129.03
2023-07-27T20:35:24.119Z,99128.69
2023-07-27T20:37:52.423Z,99126.97
2023-07-27T20:40:20.685Z,99113.41
2023-07-27T20:42:49.291Z,99110.16
2023-07-27T20:45:17.791Z,99115.00
2023-07-27T20:47:46.081Z,99108.19
2023-07-27T20:50:15.166Z,99112.78
2023-07-27T20:52:44.383Z,99116.53
2023-07-27T20:55:12.679Z,99115.72
2023-07-27T20:57:40.923Z,99109.75
2023-07-27T21:00:10.091Z,99106.47
2023-07-27T21:02:37.980Z,99117.25
2023-07-27T21:05:06.426Z,99114.56
2023-07-27T21:07:34.776Z,99110.47
2023-07-27T21:10:03.565Z,99106.97
2023-07-27T21:12:31.881Z,99111.53
2023-07-27T21:15:03.586Z,99099.72
2023-07-27T21:17:31.998Z,99099.50
2023-07-27T21:20:00.509Z,99101.09
2023-07-27T21:22:28.815Z,99101.09
2023-07-27T21:24:57.096Z,99102.75
2023-07-27T21:27:25.390Z,99092.22
2023-07-27T21:29:53.816Z,99100.06
2023-07-27T21:32:22.384Z,99095.72
2023-07-27T21:34:50.874Z,99089.53
2023-07-27T21:37:19.257Z,99089.28
2023-07-27T21:39:49.346Z,99089.28
2023-07-27T21:42:23.423Z,99082.28
2023-07-27T21:44:51.696Z,99076.06
2023-07-27T21:47:19.936Z,99078.75
2023-07-27T21:49:48.195Z,99075.84
2023-07-27T21:52:16.271Z,99075.84
2023-07-27T21:54:44.498Z,99065.06
2023-07-27T21:57:12.845Z,99065.06
2023-07-27T21:59:41.257Z,99069.41
2023-07-27T22:02:09.601Z,99064.81
2023-07-27T22:04:38.501Z,99059.44
2023-07-27T22:07:06.790Z,99061.91
2023-07-27T22:09:35.043Z,99062.94
2023-07-27T22:12:03.487Z,99062.94
2023-07-27T22:14:31.730Z,99060.25
2023-07-27T22:17:00.000Z,99066.47
2023-07-27T22:19:28.304Z,99061.06
2023-07-27T22:21:56.571Z,99064.59
2023-07-27T22:24:25.062Z,99058.16
2023-07-27T22:26:53.341Z,99052.78
2023-07-27T22:29:21.579Z,99060.03
2023-07-27T22:31:50.414Z,99043.06
2023-07-27T22:34:18.808Z,99050.09
2023-07-27T22:36:47.057Z,99050.91
2023-07-27T22:39:17.174Z,99050.66
2023-07-27T22:41:46.846Z,99049.59
2023-07-27T22:44:15.349Z,99052.84
2023-07-27T22:46:43.618Z,99056.13
2023-07-27T22:49:11.929Z,99062.06
2023-07-27T22:51:41.199Z,99059.94
2023-07-27T22:54:09.675Z,99069.38
2023-07-27T22:56:38.188Z,99061.91
2023-07-27T22:59:06.459Z,99067.03
2023-07-27T23:01:34.792Z,99065.16
2023-07-27T23:04:02.772Z,99062.22
2023-07-27T23:06:31.478Z,99063.84
2023-07-27T23:09:00.094Z,99060.09
2023-07-27T23:11:28.383Z,99064.44
2023-07-27T23:13:56.624Z,99053.66
2023-07-27T23:16:24.976Z,99059.59
2023-07-27T23:18:53.293Z,99052.91
2023-07-27T23:21:21.577Z,99051.28
2023-07-27T23:23:50.099Z,99065.31
2023-07-27T23:26:18.411Z,99063.22
2023-07-27T23:28:46.688Z,99068.59
2023-07-27T23:31:14.629Z,99064.81
2023-07-27T23:33:42.907Z,99060.25
2023-07-27T23:36:13.854Z,99057.56
2023-07-27T23:38:42.149Z,99059.69
2023-07-27T23:41:10.441Z,99055.38
2023-07-27T23:43:38.707Z,99060.75
2023-07-27T23:46:07.022Z,99051.84
2023-07-27T23:48:35.307Z,99055.59
2023-07-27T23:51:03.577Z,99046.75
2023-07-27T23:53:31.838Z,99050.47
2023-07-27T23:56:00.582Z,99046.97
2023-07-27T23:58:28.851Z,99053.16
